Time;durP1;ratioP1;P1;durP2;ratioP2;P2;SDS_P1;SDS_P2;PMS_P1;PMS_P2;Temp;Humidity;BMP_temperature;BMP_pressure;BME280_temperature;BME280_humidity;BME280_pressure;Samples;Min_cycle;Max_cycle;Signal;HPM_P1;HPM_P2
2023/11/28 00:01:51;;;;;;;0.50;0.50;;;4.90;91.20;;;;;;4996678;28;20096;-63
2023/11/28 00:04:17;;;;;;;1.00;0.50;;;4.90;91.30;;;;;;5000345;28;20042;-62
2023/11/28 00:06:43;;;;;;;0.65;0.50;;;4.90;91.30;;;;;;5001600;28;20117;-64
2023/11/28 00:09:10;;;;;;;0.50;0.50;;;4.90;91.30;;;;;;4998092;28;20494;-64
2023/11/28 00:11:36;;;;;;;1.23;0.60;;;4.90;91.30;;;;;;4999018;28;20041;-64
2023/11/28 00:14:02;;;;;;;0.40;0.40;;;4.90;91.20;;;;;;5002090;28;20045;-64
2023/11/28 00:16:27;;;;;;;0.50;0.50;;;5.00;91.30;;;;;;5000917;28;20416;-65
2023/11/28 00:18:53;;;;;;;0.43;0.40;;;5.00;91.20;;;;;;5003518;28;20038;-64
2023/11/28 00:21:18;;;;;;;0.50;0.50;;;5.00;91.10;;;;;;5001806;28;20520;-65
2023/11/28 00:23:44;;;;;;;0.40;0.40;;;5.00;91.10;;;;;;5001919;28;20064;-64
2023/11/28 00:26:10;;;;;;;0.50;0.50;;;5.00;91.20;;;;;;5002046;28;20038;-64
2023/11/28 00:28:35;;;;;;;0.88;0.60;;;5.00;91.10;;;;;;5003067;28;20034;-64
2023/11/28 00:31:01;;;;;;;0.40;0.40;;;5.00;91.10;;;;;;5001684;28;20105;-64
2023/11/28 00:33:26;;;;;;;0.50;0.50;;;5.10;91.20;;;;;;5003259;28;20402;-64
2023/11/28 00:35:52;;;;;;;0.32;0.32;;;5.10;91.20;;;;;;5003344;28;20073;-64
2023/11/28 00:38:18;;;;;;;0.40;0.40;;;5.10;91.20;;;;;;4998620;28;20057;-64
2023/11/28 00:40:44;;;;;;;0.60;0.60;;;5.10;91.10;;;;;;5002077;28;20046;-64
2023/11/28 00:43:09;;;;;;;0.50;0.50;;;5.10;91.10;;;;;;5003519;28;20034;-64
2023/11/28 00:45:35;;;;;;;0.57;0.52;;;5.10;91.10;;;;;;4998482;28;20077;-64
2023/11/28 00:48:01;;;;;;;0.30;0.30;;;5.20;91.10;;;;;;5000328;28;20489;-65
2023/11/28 00:50:26;;;;;;;0.65;0.45;;;5.20;91.10;;;;;;4997685;28;20042;-64
2023/11/28 00:52:52;;;;;;;0.77;0.57;;;5.20;91.10;;;;;;5000147;28;20026;-65
2023/11/28 00:55:17;;;;;;;0.57;0.40;;;5.20;91.50;;;;;;4996190;28;20112;-64
2023/11/28 00:57:46;;;;;;;0.82;0.35;;;5.20;91.10;;;;;;5000823;28;20034;-64
2023/11/28 01:00:13;;;;;;;1.10;0.35;;;5.20;91.00;;;;;;4995531;28;20133;-64
2023/11/28 01:02:41;;;;;;;0.43;0.43;;;5.20;91.00;;;;;;4997205;28;20442;-64
2023/11/28 01:05:10;;;;;;;0.60;0.50;;;5.20;91.00;;;;;;5003439;28;20050;-64
2023/11/28 01:07:37;;;;;;;0.50;0.50;;;5.30;91.00;;;;;;5002200;28;20680;-64
2023/11/28 01:10:03;;;;;;;0.50;0.40;;;5.30;91.10;;;;;;5000336;28;20419;-64
2023/11/28 01:12:28;;;;;;;0.65;0.50;;;5.30;91.00;;;;;;5003758;28;20030;-64
2023/11/28 01:14:54;;;;;;;0.50;0.50;;;5.30;91.00;;;;;;5002741;28;20041;-63
2023/11/28 01:17:19;;;;;;;0.40;0.40;;;5.30;91.00;;;;;;5002012;28;20041;-63
2023/11/28 01:19:45;;;;;;;0.40;0.40;;;5.30;91.00;;;;;;5002045;28;20081;-64
2023/11/28 01:22:11;;;;;;;0.50;0.40;;;5.30;90.90;;;;;;4999571;28;20030;-63
2023/11/28 01:24:39;;;;;;;0.30;0.30;;;5.30;91.00;;;;;;5002044;28;20026;-64
2023/11/28 01:27:05;;;;;;;0.50;0.45;;;5.30;91.00;;;;;;4985306;28;20044;-64
2023/11/28 01:29:30;;;;;;;0.20;0.20;;;5.30;91.00;;;;;;4999665;28;20034;-63
2023/11/28 01:31:56;;;;;;;1.25;0.30;;;5.30;91.00;;;;;;4999496;28;20226;-64
2023/11/28 01:34:22;;;;;;;0.30;0.30;;;5.30;90.90;;;;;;5001978;28;20038;-63
2023/11/28 01:36:48;;;;;;;0.40;0.32;;;5.30;90.90;;;;;;5002656;28;20091;-63
2023/11/28 01:39:14;;;;;;;0.40;0.35;;;5.30;91.00;;;;;;4996782;28;20137;-63
2023/11/28 01:41:41;;;;;;;0.30;0.30;;;5.30;91.00;;;;;;5000684;28;20117;-63
2023/11/28 01:44:07;;;;;;;0.80;0.32;;;5.40;90.90;;;;;;5001060;28;20544;-64
2023/11/28 01:46:36;;;;;;;0.55;0.30;;;5.30;90.90;;;;;;4995567;28;20050;-64
2023/11/28 01:49:08;;;;;;;0.40;0.40;;;5.30;90.90;;;;;;5000161;28;20516;-64
2023/11/28 01:51:35;;;;;;;0.30;0.25;;;5.30;90.90;;;;;;4995408;28;20129;-64
2023/11/28 01:54:04;;;;;;;0.30;0.30;;;5.40;90.90;;;;;;5003609;28;20547;-64
2023/11/28 01:56:31;;;;;;;0.60;0.25;;;5.40;90.90;;;;;;5000231;28;20107;-63
2023/11/28 01:58:58;;;;;;;0.40;0.40;;;5.40;91.00;;;;;;5002240;28;20034;-64
2023/11/28 02:01:24;;;;;;;0.40;0.30;;;5.40;90.90;;;;;;5000594;28;20412;-64
2023/11/28 02:03:51;;;;;;;0.50;0.30;;;5.40;90.90;;;;;;4996354;28;20033;-64
2023/11/28 02:06:17;;;;;;;0.32;0.32;;;5.40;91.00;;;;;;5003081;28;20036;-64
2023/11/28 02:08:43;;;;;;;0.22;0.22;;;5.40;90.90;;;;;;4985629;28;20462;-63
2023/11/28 02:11:09;;;;;;;0.30;0.30;;;5.40;90.90;;;;;;5000591;28;20132;-63
2023/11/28 02:13:35;;;;;;;0.45;0.30;;;5.40;90.90;;;;;;5001632;28;20104;-63
2023/11/28 02:16:11;;;;;;;0.35;0.30;;;5.40;90.90;;;;;;5005125;28;20401;-64
2023/11/28 02:18:37;;;;;;;0.30;0.30;;;5.40;90.90;;;;;;5005833;28;20129;-63
2023/11/28 02:21:03;;;;;;;0.52;0.40;;;5.40;90.90;;;;;;5005873;28;20121;-63
2023/11/28 02:23:29;;;;;;;0.32;0.32;;;5.40;90.90;;;;;;4986998;28;20042;-63
2023/11/28 02:25:57;;;;;;;0.40;0.30;;;5.40;90.90;;;;;;5006016;28;20117;-64
2023/11/28 02:28:24;;;;;;;0.30;0.30;;;5.40;90.90;;;;;;5002822;28;20722;-63
2023/11/28 02:30:52;;;;;;;0.20;0.20;;;5.40;90.90;;;;;;5006079;28;20448;-62
2023/11/28 02:33:18;;;;;;;0.25;0.20;;;5.40;90.90;;;;;;5005496;28;20049;-63
2023/11/28 02:35:44;;;;;;;0.20;0.20;;;5.50;90.90;;;;;;5006980;28;20243;-62
2023/11/28 02:38:09;;;;;;;0.10;0.10;;;5.50;90.90;;;;;;5004823;28;20042;-64
2023/11/28 02:40:35;;;;;;;0.20;0.20;;;5.50;91.00;;;;;;4987459;28;20034;-64
2023/11/28 02:43:01;;;;;;;0.20;0.20;;;5.50;91.00;;;;;;5005143;28;20497;-63
2023/11/28 02:45:26;;;;;;;0.20;0.20;;;5.50;91.00;;;;;;5002376;28;20046;-64
2023/11/28 02:47:52;;;;;;;1.33;0.30;;;5.50;91.00;;;;;;5003448;28;20037;-64
2023/11/28 02:50:17;;;;;;;0.20;0.20;;;5.50;91.00;;;;;;5002237;28;20135;-64
2023/11/28 02:52:43;;;;;;;0.20;0.20;;;5.60;91.00;;;;;;5002687;28;20038;-64
2023/11/28 02:55:09;;;;;;;0.22;0.22;;;5.50;91.00;;;;;;5006304;28;20037;-64
2023/11/28 02:57:34;;;;;;;0.30;0.30;;;5.60;91.00;;;;;;5004519;28;20041;-64
2023/11/28 03:00:00;;;;;;;0.30;0.30;;;5.60;91.00;;;;;;5003648;28;20026;-64
2023/11/28 03:02:27;;;;;;;0.30;0.30;;;5.60;91.00;;;;;;4999721;28;20449;-64
2023/11/28 03:04:52;;;;;;;0.38;0.38;;;5.60;91.00;;;;;;5003870;28;20046;-64
2023/11/28 03:07:18;;;;;;;0.43;0.43;;;5.60;91.00;;;;;;5000631;28;20359;-64
2023/11/28 03:09:43;;;;;;;0.50;0.50;;;5.70;91.00;;;;;;4995843;28;20064;-64
2023/11/28 03:12:09;;;;;;;0.40;0.40;;;5.70;91.10;;;;;;5002564;28;20072;-64
2023/11/28 03:14:35;;;;;;;0.40;0.40;;;5.70;91.10;;;;;;5003053;28;20042;-64
2023/11/28 03:17:00;;;;;;;0.40;0.40;;;5.70;91.10;;;;;;5003043;28;20049;-64
2023/11/28 03:19:26;;;;;;;0.50;0.50;;;5.70;91.50;;;;;;5003631;28;20636;-63
2023/11/28 03:21:52;;;;;;;0.60;0.60;;;5.70;91.10;;;;;;5002179;28;21747;-64
2023/11/28 03:24:18;;;;;;;0.40;0.38;;;5.70;91.10;;;;;;4984858;28;20084;-64
2023/11/28 03:26:44;;;;;;;0.68;0.40;;;5.80;91.10;;;;;;5005557;28;20071;-64
2023/11/28 03:29:10;;;;;;;1.27;0.40;;;5.70;91.10;;;;;;5004830;28;20524;-64
2023/11/28 03:31:35;;;;;;;0.57;0.50;;;5.70;91.10;;;;;;5001348;28;20581;-64
2023/11/28 03:34:02;;;;;;;0.47;0.47;;;5.80;91.10;;;;;;5002050;28;20043;-64
2023/11/28 03:36:28;;;;;;;0.50;0.50;;;5.70;91.10;;;;;;5003007;28;20399;-64
2023/11/28 03:38:54;;;;;;;0.45;0.45;;;5.80;91.10;;;;;;5003106;28;20037;-63
2023/11/28 03:41:20;;;;;;;0.52;0.52;;;5.80;91.10;;;;;;5003333;28;20121;-64
2023/11/28 03:43:46;;;;;;;2.00;0.65;;;5.80;91.60;;;;;;5005896;28;20129;-64
2023/11/28 03:46:11;;;;;;;0.75;0.50;;;5.80;91.20;;;;;;5007418;28;20033;-64
2023/11/28 03:48:38;;;;;;;0.55;0.55;;;5.80;91.10;;;;;;5006074;28;20041;-64
2023/11/28 03:51:03;;;;;;;0.30;0.30;;;5.90;91.20;;;;;;5007512;28;20041;-64
2023/11/28 03:53:29;;;;;;;0.50;0.50;;;5.90;91.20;;;;;;5007066;28;20034;-65
2023/11/28 03:55:55;;;;;;;0.50;0.50;;;5.90;91.20;;;;;;5007439;28;20450;-64
2023/11/28 03:58:21;;;;;;;0.40;0.40;;;5.90;91.20;;;;;;4998209;28;20042;-64
2023/11/28 04:00:49;;;;;;;0.40;0.40;;;5.90;91.20;;;;;;5006111;28;20041;-64
2023/11/28 04:03:15;;;;;;;0.40;0.40;;;5.80;91.10;;;;;;5007144;28;20038;-65
2023/11/28 04:05:43;;;;;;;0.30;0.30;;;5.90;91.20;;;;;;5007564;28;20036;-64
2023/11/28 04:08:08;;;;;;;0.40;0.40;;;5.90;91.30;;;;;;5006628;28;20573;-64
2023/11/28 04:10:34;;;;;;;0.47;0.40;;;5.90;91.20;;;;;;5006889;28;20045;-64
2023/11/28 04:12:59;;;;;;;0.30;0.30;;;5.90;91.20;;;;;;5007415;28;20593;-64
2023/11/28 04:15:25;;;;;;;0.60;0.35;;;5.90;91.20;;;;;;5007275;28;20060;-64
2023/11/28 04:17:50;;;;;;;0.30;0.30;;;5.90;91.20;;;;;;5006972;28;20033;-64
2023/11/28 04:20:16;;;;;;;1.58;0.20;;;5.90;91.20;;;;;;5007553;28;20537;-64
2023/11/28 04:22:42;;;;;;;0.85;0.30;;;5.90;91.20;;;;;;4996910;28;20104;-64
2023/11/28 04:25:08;;;;;;;0.50;0.40;;;5.90;91.20;;;;;;4997511;28;20042;-64
2023/11/28 04:27:33;;;;;;;0.28;0.28;;;5.90;91.20;;;;;;4998897;28;20144;-64
2023/11/28 04:29:59;;;;;;;1.17;0.20;;;5.90;91.10;;;;;;5000454;28;20413;-64
2023/11/28 04:32:25;;;;;;;0.20;0.20;;;5.90;91.10;;;;;;4994904;28;20219;-64
2023/11/28 04:34:50;;;;;;;0.17;0.15;;;5.90;91.10;;;;;;4995421;28;20603;-64
2023/11/28 04:37:16;;;;;;;0.40;0.20;;;5.90;91.10;;;;;;4995831;28;20048;-64
2023/11/28 04:39:43;;;;;;;0.10;0.10;;;5.90;91.00;;;;;;4997928;28;20049;-64
2023/11/28 04:42:09;;;;;;;0.20;0.20;;;5.90;91.10;;;;;;4996580;28;20068;-64
2023/11/28 04:44:34;;;;;;;0.43;0.20;;;5.90;91.10;;;;;;4998766;28;20057;-64
2023/11/28 04:47:00;;;;;;;0.52;0.30;;;5.90;91.10;;;;;;4983717;28;20045;-64
2023/11/28 04:49:25;;;;;;;0.20;0.20;;;5.90;91.10;;;;;;4996916;28;20515;-64
2023/11/28 04:51:51;;;;;;;0.30;0.30;;;5.90;91.10;;;;;;4997575;28;20042;-64
2023/11/28 04:54:17;;;;;;;0.20;0.20;;;5.90;91.10;;;;;;5006625;28;20452;-64
2023/11/28 04:56:42;;;;;;;0.17;0.17;;;5.90;91.10;;;;;;5004775;28;20960;-64
2023/11/28 04:59:09;;;;;;;0.77;0.30;;;5.90;91.10;;;;;;5005081;28;20030;-64
2023/11/28 05:01:44;;;;;;;0.10;0.10;;;5.90;91.10;;;;;;5001986;28;20041;-64
2023/11/28 05:04:10;;;;;;;0.30;0.30;;;5.90;91.10;;;;;;5002989;28;20034;-63
2023/11/28 05:06:35;;;;;;;0.50;0.40;;;5.90;91.10;;;;;;4995249;28;20048;-63
2023/11/28 05:09:01;;;;;;;1.15;0.40;;;5.90;91.10;;;;;;4999618;28;20037;-64
2023/11/28 05:11:27;;;;;;;0.88;0.50;;;5.90;91.10;;;;;;4999150;28;20469;-64
2023/11/28 05:13:52;;;;;;;0.38;0.38;;;5.90;91.10;;;;;;5006353;28;20099;-64
2023/11/28 05:16:18;;;;;;;0.35;0.35;;;5.90;91.10;;;;;;5005118;28;20702;-64
2023/11/28 05:18:43;;;;;;;0.82;0.30;;;6.00;91.20;;;;;;5005216;28;20034;-64
2023/11/28 05:21:09;;;;;;;0.85;0.50;;;6.00;91.10;;;;;;5006323;28;20072;-64
2023/11/28 05:23:34;;;;;;;0.77;0.50;;;6.00;91.10;;;;;;5006582;28;20068;-64
2023/11/28 05:26:00;;;;;;;0.63;0.47;;;6.00;91.10;;;;;;5006546;28;20045;-64
2023/11/28 05:28:26;;;;;;;0.30;0.30;;;6.00;91.10;;;;;;5005596;28;20391;-64
2023/11/28 05:30:51;;;;;;;0.40;0.40;;;6.00;91.10;;;;;;5006187;28;20038;-64
2023/11/28 05:33:17;;;;;;;0.43;0.40;;;6.00;91.10;;;;;;4988723;28;20172;-64
2023/11/28 05:35:42;;;;;;;0.52;0.43;;;6.00;91.10;;;;;;5006486;28;20413;-64
2023/11/28 05:38:08;;;;;;;0.35;0.35;;;6.10;91.10;;;;;;5006088;28;20120;-62
2023/11/28 05:40:34;;;;;;;1.55;0.43;;;6.10;91.10;;;;;;5005416;28;20022;-63
2023/11/28 05:43:00;;;;;;;0.68;0.32;;;6.00;91.10;;;;;;5005854;28;20420;-63
2023/11/28 05:45:25;;;;;;;0.65;0.60;;;6.10;91.10;;;;;;5005300;28;20038;-64
2023/11/28 05:47:52;;;;;;;0.63;0.50;;;6.10;91.10;;;;;;5005653;28;20106;-64
2023/11/28 05:50:17;;;;;;;1.38;0.70;;;6.10;91.10;;;;;;5005706;28;20030;-64
2023/11/28 05:52:43;;;;;;;1.48;0.65;;;6.10;91.10;;;;;;5005500;28;20138;-65
2023/11/28 05:55:08;;;;;;;0.63;0.57;;;6.10;91.10;;;;;;5005962;28;20034;-64
2023/11/28 05:57:34;;;;;;;0.63;0.60;;;6.10;91.10;;;;;;5005678;28;20057;-64
2023/11/28 06:00:00;;;;;;;0.50;0.50;;;6.10;91.10;;;;;;5005780;28;20080;-63
2023/11/28 06:02:25;;;;;;;0.45;0.45;;;6.10;91.10;;;;;;5004416;28;20029;-64
2023/11/28 06:04:51;;;;;;;0.52;0.52;;;6.10;91.10;;;;;;5005664;28;20375;-64
2023/11/28 06:07:16;;;;;;;0.77;0.50;;;6.20;91.10;;;;;;5005255;28;20605;-64
2023/11/28 06:09:42;;;;;;;0.35;0.35;;;6.10;91.10;;;;;;5005920;28;20413;-64
2023/11/28 06:12:08;;;;;;;0.40;0.40;;;6.10;91.10;;;;;;5002768;28;20041;-65
2023/11/28 06:14:36;;;;;;;2.35;0.50;;;6.20;91.10;;;;;;5003063;28;20045;-65
2023/11/28 06:17:01;;;;;;;0.47;0.47;;;6.20;91.10;;;;;;5005493;28;20044;-65
2023/11/28 06:19:28;;;;;;;0.50;0.50;;;6.20;91.10;;;;;;5005505;28;20026;-65
2023/11/28 06:21:53;;;;;;;0.88;0.50;;;6.20;91.10;;;;;;5005595;28;20053;-65
2023/11/28 06:24:19;;;;;;;0.40;0.40;;;6.20;91.10;;;;;;5005707;28;20041;-65
2023/11/28 06:26:45;;;;;;;0.40;0.40;;;6.20;91.10;;;;;;5005327;28;20038;-65
2023/11/28 06:29:11;;;;;;;0.32;0.32;;;6.20;91.10;;;;;;5005573;28;20037;-65
2023/11/28 06:31:36;;;;;;;0.95;0.60;;;6.20;91.10;;;;;;5006099;28;20061;-64
2023/11/28 06:34:02;;;;;;;0.75;0.60;;;6.20;91.10;;;;;;5005136;28;20034;-64
2023/11/28 06:36:27;;;;;;;0.60;0.60;;;6.20;91.10;;;;;;5005379;28;20401;-64
2023/11/28 06:38:55;;;;;;;0.52;0.52;;;6.20;91.10;;;;;;5005018;28;20042;-64
2023/11/28 06:41:20;;;;;;;0.77;0.60;;;6.20;91.20;;;;;;5005583;28;20030;-64
2023/11/28 06:43:46;;;;;;;1.08;0.80;;;6.20;91.20;;;;;;5005715;28;20044;-65
2023/11/28 06:46:13;;;;;;;1.08;0.70;;;6.20;91.20;;;;;;5005403;28;20041;-64
2023/11/28 06:48:39;;;;;;;1.83;0.80;;;6.20;91.20;;;;;;4986412;28;20064;-64
2023/11/28 06:51:07;;;;;;;0.70;0.68;;;6.20;91.20;;;;;;5005477;28;20045;-64
2023/11/28 06:53:32;;;;;;;1.02;0.70;;;6.20;91.20;;;;;;5005634;28;20117;-64
2023/11/28 06:55:58;;;;;;;0.80;0.80;;;6.20;91.20;;;;;;5005792;28;20458;-64
2023/11/28 06:58:23;;;;;;;0.80;0.80;;;6.20;91.20;;;;;;5005921;28;20572;-64
2023/11/28 07:00:49;;;;;;;0.70;0.70;;;6.20;91.20;;;;;;5009201;28;20108;-64
2023/11/28 07:03:15;;;;;;;0.90;0.90;;;6.10;91.20;;;;;;5007490;28;20033;-64
2023/11/28 07:05:40;;;;;;;1.08;0.98;;;6.10;91.20;;;;;;5009049;28;20065;-64
2023/11/28 07:08:06;;;;;;;0.80;0.80;;;6.20;91.20;;;;;;5008444;28;20121;-64
2023/11/28 07:10:33;;;;;;;0.93;0.80;;;6.10;91.20;;;;;;5007805;28;20046;-64
2023/11/28 07:12:59;;;;;;;1.42;1.33;;;6.20;91.30;;;;;;5008802;28;20042;-64
2023/11/28 07:15:25;;;;;;;1.80;1.30;;;6.10;91.20;;;;;;5008992;28;20725;-64
2023/11/28 07:17:50;;;;;;;0.90;0.90;;;6.20;91.30;;;;;;5006606;28;20029;-64
2023/11/28 07:20:16;;;;;;;1.10;1.00;;;6.20;91.30;;;;;;5007323;28;20077;-64
2023/11/28 07:22:41;;;;;;;1.40;1.00;;;6.20;91.30;;;;;;5008051;28;20069;-64
2023/11/28 07:25:09;;;;;;;1.05;1.05;;;6.20;91.30;;;;;;5007517;28;20034;-63
2023/11/28 07:27:35;;;;;;;1.20;1.10;;;6.20;91.30;;;;;;5003844;28;20053;-64
2023/11/28 07:30:02;;;;;;;1.38;1.10;;;6.20;91.30;;;;;;5006824;28;20984;-65
2023/11/28 07:32:28;;;;;;;1.00;1.00;;;6.20;91.30;;;;;;5005717;28;20030;-64
2023/11/28 07:34:53;;;;;;;1.30;1.15;;;6.20;91.30;;;;;;5006038;28;20046;-64
2023/11/28 07:37:19;;;;;;;1.20;1.20;;;6.20;91.30;;;;;;5005566;28;20125;-64
2023/11/28 07:39:44;;;;;;;1.08;1.08;;;6.20;91.40;;;;;;5005363;28;20501;-64
2023/11/28 07:42:10;;;;;;;1.17;1.08;;;6.20;91.50;;;;;;5005680;28;20378;-64
2023/11/28 07:44:35;;;;;;;1.10;1.00;;;6.20;91.50;;;;;;5006136;28;20029;-65
2023/11/28 07:47:02;;;;;;;0.82;0.82;;;6.20;91.50;;;;;;5006093;28;20038;-65
2023/11/28 07:49:27;;;;;;;0.80;0.80;;;6.20;91.50;;;;;;5001904;28;20038;-64
2023/11/28 07:51:53;;;;;;;1.00;0.90;;;6.20;91.40;;;;;;5006307;28;20039;-64
2023/11/28 07:54:18;;;;;;;0.55;0.55;;;6.20;91.50;;;;;;5005379;28;20040;-64
2023/11/28 07:56:44;;;;;;;0.95;0.90;;;6.20;91.50;;;;;;4987133;28;20497;-64
2023/11/28 07:59:09;;;;;;;0.50;0.50;;;6.20;91.50;;;;;;5005224;28;20242;-63
2023/11/28 08:01:35;;;;;;;0.50;0.50;;;6.20;91.50;;;;;;5004960;28;20116;-64
2023/11/28 08:04:01;;;;;;;0.57;0.57;;;6.20;91.40;;;;;;5005626;28;20038;-64
2023/11/28 08:06:26;;;;;;;0.43;0.40;;;6.10;91.40;;;;;;5005496;28;20045;-64
2023/11/28 08:08:52;;;;;;;1.40;1.27;;;6.10;91.40;;;;;;5006072;28;20045;-64
2023/11/28 08:11:18;;;;;;;0.77;0.70;;;6.10;91.40;;;;;;5002895;28;20037;-64
2023/11/28 08:13:43;;;;;;;0.47;0.47;;;6.10;91.40;;;;;;5005976;28;20040;-64
2023/11/28 08:16:09;;;;;;;0.77;0.68;;;6.10;91.40;;;;;;5004948;28;20493;-64
2023/11/28 08:18:34;;;;;;;1.67;1.25;;;6.10;91.30;;;;;;5003970;28;20053;-65
2023/11/28 08:21:02;;;;;;;1.30;1.20;;;6.00;91.30;;;;;;5006812;28;20457;-64
2023/11/28 08:23:28;;;;;;;1.35;0.90;;;6.00;91.40;;;;;;5003719;28;20038;-64
2023/11/28 08:25:54;;;;;;;1.30;0.70;;;6.00;91.20;;;;;;5003846;28;20053;-65
2023/11/28 08:28:19;;;;;;;0.73;0.70;;;6.00;91.10;;;;;;5004831;28;20457;-64
2023/11/28 08:30:45;;;;;;;0.90;0.90;;;5.90;91.00;;;;;;5004617;28;20037;-65
2023/11/28 08:33:10;;;;;;;1.10;1.00;;;5.90;90.90;;;;;;5003731;28;20386;-65
2023/11/28 08:35:36;;;;;;;0.60;0.60;;;5.80;90.90;;;;;;5004303;28;20135;-64
2023/11/28 08:38:01;;;;;;;1.42;0.55;;;5.80;90.90;;;;;;5005247;28;20041;-64
2023/11/28 08:40:27;;;;;;;3.50;0.70;;;5.70;90.40;;;;;;5002756;28;20310;-64
2023/11/28 08:42:52;;;;;;;0.55;0.50;;;5.70;90.50;;;;;;5005402;28;20057;-64
2023/11/28 08:45:18;;;;;;;1.08;0.98;;;5.60;90.50;;;;;;5004000;28;20046;-63
2023/11/28 08:47:44;;;;;;;1.65;1.55;;;5.50;90.40;;;;;;5005150;28;20034;-64
2023/11/28 08:50:09;;;;;;;1.40;1.30;;;5.50;90.40;;;;;;5004041;28;20038;-64
2023/11/28 08:52:35;;;;;;;2.83;2.63;;;5.40;90.40;;;;;;5004160;28;20113;-64
2023/11/28 08:55:01;;;;;;;1.45;1.30;;;5.40;90.90;;;;;;5002747;28;20069;-64
2023/11/28 08:57:33;;;;;;;0.73;0.73;;;5.30;90.50;;;;;;5003930;28;20038;-64
2023/11/28 09:00:03;;;;;;;0.60;0.60;;;5.20;90.60;;;;;;5005005;28;20117;-64
2023/11/28 09:02:29;;;;;;;1.13;1.02;;;5.20;90.70;;;;;;5002485;28;20176;-64
2023/11/28 09:04:55;;;;;;;2.63;1.92;;;5.10;90.70;;;;;;5005050;28;20128;-64
2023/11/28 09:07:20;;;;;;;2.25;1.48;;;5.10;90.80;;;;;;5006426;28;20122;-63
2023/11/28 09:09:46;;;;;;;1.63;1.02;;;5.10;90.90;;;;;;5003524;28;20117;-63
2023/11/28 09:12:11;;;;;;;1.58;1.30;;;5.00;90.80;;;;;;5003131;28;20565;-64
2023/11/28 09:14:37;;;;;;;1.55;1.45;;;5.00;90.80;;;;;;5004216;28;20556;-64
2023/11/28 09:17:02;;;;;;;0.70;0.70;;;5.00;90.80;;;;;;4988797;28;20044;-63
2023/11/28 09:19:28;;;;;;;0.60;0.60;;;4.90;90.70;;;;;;5005078;28;20053;-64
2023/11/28 09:21:54;;;;;;;1.33;0.90;;;4.90;90.90;;;;;;5005921;28;20514;-64
2023/11/28 09:24:20;;;;;;;0.63;0.30;;;4.90;90.80;;;;;;5005551;28;20317;-64
2023/11/28 09:26:45;;;;;;;0.50;0.50;;;4.80;90.90;;;;;;4986247;28;20145;-63
2023/11/28 09:29:12;;;;;;;0.63;0.50;;;4.80;90.90;;;;;;5005913;28;20420;-65
2023/11/28 09:31:38;;;;;;;0.75;0.30;;;4.80;91.00;;;;;;5006211;28;20061;-63
2023/11/28 09:34:04;;;;;;;0.77;0.68;;;4.80;91.00;;;;;;5006045;28;20573;-63
2023/11/28 09:36:30;;;;;;;0.85;0.43;;;4.70;90.50;;;;;;5004542;28;20120;-64
2023/11/28 09:38:59;;;;;;;0.47;0.47;;;4.70;90.10;;;;;;5007084;28;20113;-64
2023/11/28 09:41:26;;;;;;;0.22;0.22;;;4.60;90.10;;;;;;5007385;28;21116;-64
2023/11/28 09:43:52;;;;;;;0.30;0.30;;;4.50;89.60;;;;;;5007129;28;20505;-63
2023/11/28 09:46:22;;;;;;;1.48;0.70;;;4.50;89.90;;;;;;5007417;28;20044;-64
2023/11/28 09:48:53;;;;;;;1.38;0.77;;;4.40;89.90;;;;;;5005366;28;20029;-64
2023/11/28 09:51:20;;;;;;;0.93;0.60;;;4.40;90.10;;;;;;5006980;28;20413;-64
2023/11/28 09:53:48;;;;;;;0.98;0.55;;;4.30;90.00;;;;;;5007390;28;20544;-64
2023/11/28 09:56:19;;;;;;;1.20;1.10;;;4.30;90.10;;;;;;5007194;28;20441;-63
2023/11/28 09:58:45;;;;;;;1.17;0.70;;;4.20;89.80;;;;;;5006260;28;20042;-64
2023/11/28 10:01:14;;;;;;;0.50;0.47;;;4.20;90.00;;;;;;5007151;28;20478;-64
2023/11/28 10:03:40;;;;;;;0.30;0.30;;;4.10;90.10;;;;;;5007046;28;20041;-64
2023/11/28 10:06:11;;;;;;;0.30;0.30;;;4.10;90.30;;;;;;5007522;28;20520;-64
2023/11/28 10:08:38;;;;;;;0.43;0.20;;;4.10;90.30;;;;;;5006103;28;20056;-64
2023/11/28 10:11:04;;;;;;;0.43;0.40;;;4.10;90.00;;;;;;5003251;28;20069;-63
2023/11/28 10:13:30;;;;;;;0.20;0.20;;;4.10;90.10;;;;;;5007669;28;20121;-64
2023/11/28 10:15:58;;;;;;;0.20;0.20;;;4.00;90.00;;;;;;5007674;28;20110;-63
2023/11/28 10:18:23;;;;;;;0.63;0.38;;;4.00;89.80;;;;;;5007242;28;20056;-63
2023/11/28 10:20:49;;;;;;;0.50;0.47;;;4.00;89.70;;;;;;5006622;28;20112;-63
2023/11/28 10:23:16;;;;;;;0.45;0.30;;;3.90;89.60;;;;;;5006497;28;20058;-63
2023/11/28 10:25:42;;;;;;;0.55;0.32;;;3.90;89.10;;;;;;5007356;28;20107;-62
2023/11/28 10:28:11;;;;;;;0.40;0.40;;;3.90;88.50;;;;;;5007043;28;20046;-61
2023/11/28 10:30:39;;;;;;;0.40;0.30;;;3.90;88.70;;;;;;5006450;28;20509;-63
2023/11/28 10:33:07;;;;;;;0.80;0.30;;;3.80;88.90;;;;;;5008915;28;20049;-63
2023/11/28 10:35:43;;;;;;;0.20;0.20;;;3.80;88.60;;;;;;5011059;28;20481;-63
2023/11/28 10:38:16;;;;;;;0.30;0.30;;;3.80;88.00;;;;;;5006552;28;20176;-63
2023/11/28 10:40:44;;;;;;;0.32;0.32;;;3.80;87.70;;;;;;5008881;28;20121;-64
2023/11/28 10:43:09;;;;;;;0.20;0.20;;;3.80;88.10;;;;;;5005145;28;20039;-64
2023/11/28 10:45:35;;;;;;;0.30;0.30;;;3.70;88.20;;;;;;4999999;28;20034;-64
2023/11/28 10:48:02;;;;;;;1.88;0.80;;;3.70;88.20;;;;;;5009879;28;20453;-64
2023/11/28 10:50:28;;;;;;;0.75;0.30;;;3.70;88.40;;;;;;5008906;28;20053;-63
2023/11/28 10:52:57;;;;;;;0.40;0.40;;;3.70;88.70;;;;;;5010098;28;21253;-63
2023/11/28 10:55:28;;;;;;;0.43;0.43;;;3.70;88.90;;;;;;5010252;28;20038;-64
2023/11/28 10:58:02;;;;;;;0.30;0.30;;;3.70;88.90;;;;;;5010235;28;20037;-64
2023/11/28 11:00:28;;;;;;;1.13;0.43;;;3.70;89.20;;;;;;5010057;28;20461;-64
2023/11/28 11:02:58;;;;;;;0.60;0.60;;;3.60;89.00;;;;;;5009804;28;20049;-64
2023/11/28 11:05:26;;;;;;;0.45;0.40;;;3.70;89.40;;;;;;5010281;28;20080;-63
2023/11/28 11:07:52;;;;;;;1.17;0.80;;;3.60;89.90;;;;;;5009962;28;20125;-63
2023/11/28 11:10:18;;;;;;;1.05;0.50;;;3.60;90.10;;;;;;5007709;28;20654;-64
2023/11/28 11:12:46;;;;;;;0.40;0.32;;;3.60;90.10;;;;;;5008660;28;20045;-64
2023/11/28 11:15:50;;;;;;;0.50;0.40;;;3.60;90.20;;;;;;5010182;28;20494;-64
2023/11/28 11:18:22;;;;;;;0.30;0.30;;;3.60;90.30;;;;;;4987259;28;20433;-64
2023/11/28 11:20:55;;;;;;;0.75;0.50;;;3.50;90.30;;;;;;5009595;28;20038;-64
2023/11/28 11:23:23;;;;;;;0.30;0.30;;;3.50;90.40;;;;;;5009841;28;20034;-63
2023/11/28 11:25:52;;;;;;;0.20;0.20;;;3.50;90.40;;;;;;5010043;28;20025;-64
2023/11/28 11:28:18;;;;;;;0.20;0.20;;;3.50;90.30;;;;;;5009278;28;20034;-64
2023/11/28 11:30:45;;;;;;;1.10;0.68;;;3.50;90.30;;;;;;5011883;28;20030;-64
2023/11/28 11:33:13;;;;;;;0.93;0.55;;;3.50;90.30;;;;;;5013041;28;20038;-64
2023/11/28 11:36:13;;;;;;;2.28;0.95;;;3.50;90.20;;;;;;5011447;28;20552;-64
2023/11/28 11:38:39;;;;;;;2.30;1.20;;;3.50;90.00;;;;;;5002877;28;20428;-62
2023/11/28 11:41:08;;;;;;;3.58;1.65;;;3.50;90.10;;;;;;5008309;28;20034;-64
2023/11/28 11:43:38;;;;;;;3.35;1.30;;;3.60;90.10;;;;;;5006516;28;20038;-64
2023/11/28 11:46:12;;;;;;;2.97;1.15;;;3.60;90.20;;;;;;5007203;28;20583;-64
2023/11/28 11:48:39;;;;;;;3.57;1.63;;;3.70;89.90;;;;;;5007898;28;20108;-64
2023/11/28 11:51:05;;;;;;;13.27;3.28;;;3.70;89.80;;;;;;5009707;28;20041;-64
2023/11/28 11:53:33;;;;;;;9.70;3.20;;;3.70;89.70;;;;;;5009207;28;20113;-64
2023/11/28 11:56:01;;;;;;;1.80;1.10;;;3.70;89.80;;;;;;5008132;28;20058;-64
2023/11/28 11:58:27;;;;;;;9.35;2.20;;;3.80;89.60;;;;;;5008103;28;20033;-64
2023/11/28 12:00:53;;;;;;;6.45;1.83;;;3.70;89.30;;;;;;5009421;28;20033;-64
2023/11/28 12:03:19;;;;;;;7.07;1.65;;;3.80;89.60;;;;;;5008731;28;20180;-64
2023/11/28 12:05:53;;;;;;;8.40;2.08;;;3.80;89.70;;;;;;5009056;28;20021;-64
2023/11/28 12:08:20;;;;;;;11.13;2.45;;;3.80;89.60;;;;;;5008346;28;20038;-64
2023/11/28 12:10:46;;;;;;;2.03;1.00;;;3.80;89.50;;;;;;5005276;28;20080;-64
2023/11/28 12:13:15;;;;;;;3.00;1.52;;;3.80;89.30;;;;;;5008060;28;20414;-64
2023/11/28 12:15:41;;;;;;;4.03;1.73;;;3.80;89.40;;;;;;5008359;28;20528;-64
2023/11/28 12:18:13;;;;;;;3.15;1.70;;;3.80;89.20;;;;;;5008724;28;20030;-64
2023/11/28 12:20:40;;;;;;;4.85;2.20;;;3.80;88.40;;;;;;5008171;28;20030;-64
2023/11/28 12:23:07;;;;;;;3.50;1.48;;;3.80;88.50;;;;;;5008707;28;20034;-64
2023/11/28 12:25:36;;;;;;;1.50;1.23;;;3.70;88.70;;;;;;5008781;28;20034;-64
2023/11/28 12:28:02;;;;;;;1.25;1.00;;;3.70;88.70;;;;;;5008721;28;20033;-64
2023/11/28 12:30:29;;;;;;;1.40;1.20;;;3.70;88.70;;;;;;5007799;28;20049;-64
2023/11/28 12:32:55;;;;;;;1.48;1.02;;;3.70;88.60;;;;;;5008772;28;20107;-63
2023/11/28 12:35:21;;;;;;;1.23;1.02;;;3.60;88.30;;;;;;5008151;28;20521;-64
2023/11/28 12:37:48;;;;;;;0.90;0.80;;;3.70;88.40;;;;;;5008263;28;20037;-64
2023/11/28 12:40:16;;;;;;;0.80;0.70;;;3.60;88.20;;;;;;5008876;28;20049;-64
2023/11/28 12:42:45;;;;;;;1.30;1.20;;;3.60;87.20;;;;;;5008294;28;20026;-64
2023/11/28 12:45:11;;;;;;;0.60;0.60;;;3.60;87.40;;;;;;5008246;28;20053;-64
2023/11/28 12:47:37;;;;;;;1.15;0.80;;;3.60;87.20;;;;;;5006027;28;20061;-64
2023/11/28 12:50:05;;;;;;;1.10;1.00;;;3.50;87.00;;;;;;5006240;28;20034;-64
2023/11/28 12:52:34;;;;;;;0.80;0.80;;;3.50;87.00;;;;;;5007779;28;20493;-64
2023/11/28 12:55:02;;;;;;;0.98;0.90;;;3.50;88.10;;;;;;5008076;28;20046;-64